Terminal Aerodrome Forecast
Issued by NWS

Home | Current Version | Previous Version | Text Only | Print | Product List | Glossary Off
Versions: 1 2 3 4 5 6 7 8 9 10 11 12 13 14 15 16 17 18 19 20 21 22 23 24 25 26

000
FTUS41 KCLE 191100
TAFFDY
TAF
KFDY 191120Z 1912/2012 VRB03KT 6SM -SHRA BKN025 OVC050
      TEMPO 1912/1915 4SM -SHRA SCT015 BKN020
     FM191800 VRB03KT P6SM BKN050
     FM192300 10003KT P6SM SCT035 SCT250=

USA.gov is the U.S. government's official web portal to all federal, state and local government web resources and services.